HVN252 VVTS-VTBS
Flight info
| Callsign | HVN252 |
|---|---|
| Flight time | 0h 41m |
| Altitude | 32000 |
| Route | SAPEN5A SAPEN R468 ELMOP P629 NUGPA DCT TUMGA TUMGA1C |
| Aircraft | B772/H-SDE2E3FGHIJ5LORVWXY/LB1D1 |
Departure
| Time | 2026-05-07 21:06 |
|---|---|
| Airport | Tan Son Nhat International Airport (VVTS) |
Arrival
| Time | 2026-05-07 21:48 |
|---|---|
| Airport | Suvarnabhumi Airport (VTBS) |
| Time | Latitude | Longitude | Altitude | Speed | Heading |
|---|---|---|---|---|---|
| 2026-05-07 20:58 | 10.81807 | 106.66502 | 14 ft | 0 kts | 160° |
| 2026-05-07 20:58 | 10.81825 | 106.66495 | 40 ft | 3 kts | 160° |
| 2026-05-07 20:59 | 10.81845 | 106.66487 | 38 ft | 3 kts | 160° |
| 2026-05-07 20:59 | 10.81862 | 106.66481 | 38 ft | 3 kts | 152° |
| 2026-05-07 20:59 | 10.81876 | 106.66469 | 36 ft | 3 kts | 118° |
| 2026-05-07 20:59 | 10.81883 | 106.66451 | 39 ft | 3 kts | 91° |
| 2026-05-07 21:00 | 10.81881 | 106.66430 | 41 ft | 3 kts | 76° |
| 2026-05-07 21:00 | 10.81877 | 106.66415 | 39 ft | 0 kts | 69° |
| 2026-05-07 21:02 | 10.81885 | 106.66436 | 41 ft | 8 kts | 69° |
| 2026-05-07 21:02 | 10.81905 | 106.66487 | 41 ft | 8 kts | 68° |
| 2026-05-07 21:03 | 10.81925 | 106.66538 | 41 ft | 8 kts | 68° |
| 2026-05-07 21:03 | 10.81949 | 106.66602 | 41 ft | 17 kts | 69° |
| 2026-05-07 21:03 | 10.81990 | 106.66713 | 41 ft | 17 kts | 70° |
| 2026-05-07 21:03 | 10.82032 | 106.66824 | 41 ft | 17 kts | 69° |
| 2026-05-07 21:04 | 10.82097 | 106.66916 | 39 ft | 13 kts | 39° |
| 2026-05-07 21:04 | 10.82165 | 106.66972 | 39 ft | 13 kts | 39° |
| 2026-05-07 21:04 | 10.82231 | 106.67016 | 40 ft | 9 kts | 9° |
| 2026-05-07 21:04 | 10.82274 | 106.67002 | 40 ft | 6 kts | 336° |
| 2026-05-07 21:05 | 10.82312 | 106.66979 | 39 ft | 8 kts | 318° |
| 2026-05-07 21:05 | 10.82348 | 106.66934 | 39 ft | 8 kts | 308° |
| 2026-05-07 21:05 | 10.82347 | 106.66879 | 37 ft | 9 kts | 247° |
| 2026-05-07 21:05 | 10.82296 | 106.66751 | 37 ft | 43 kts | 248° |
| 2026-05-07 21:06 | 10.82091 | 106.66219 | 41 ft | 117 kts | 248° |
| 2026-05-07 21:06 | 10.81718 | 106.65236 | 40 ft | 179 kts | 249° |
| 2026-05-07 21:06 | 10.81259 | 106.63945 | 470 ft | 203 kts | 249° |
| 2026-05-07 21:06 | 10.80790 | 106.62569 | 1311 ft | 208 kts | 249° |
| 2026-05-07 21:07 | 10.80289 | 106.61190 | 2115 ft | 213 kts | 244° |
| 2026-05-07 21:07 | 10.79683 | 106.59717 | 2355 ft | 239 kts | 244° |
| 2026-05-07 21:07 | 10.79034 | 106.58104 | 2780 ft | 252 kts | 245° |
| 2026-05-07 21:07 | 10.78356 | 106.56382 | 3125 ft | 271 kts | 246° |
| 2026-05-07 21:08 | 10.77714 | 106.54558 | 3627 ft | 277 kts | 257° |
| 2026-05-07 21:08 | 10.77864 | 106.52599 | 4162 ft | 284 kts | 294° |
| 2026-05-07 21:08 | 10.78943 | 106.50944 | 4863 ft | 279 kts | 309° |
| 2026-05-07 21:08 | 10.80123 | 106.49349 | 5473 ft | 285 kts | 308° |
| 2026-05-07 21:09 | 10.81287 | 106.47716 | 6211 ft | 285 kts | 308° |
| 2026-05-07 21:09 | 10.82429 | 106.46103 | 6857 ft | 287 kts | 308° |
| 2026-05-07 21:09 | 10.83605 | 106.44441 | 7442 ft | 291 kts | 307° |
| 2026-05-07 21:09 | 10.84795 | 106.42757 | 8035 ft | 295 kts | 307° |
| 2026-05-07 21:10 | 10.85995 | 106.41058 | 8628 ft | 297 kts | 307° |
| 2026-05-07 21:10 | 10.87208 | 106.39338 | 9240 ft | 299 kts | 307° |
| 2026-05-07 21:10 | 10.88416 | 106.37624 | 9886 ft | 298 kts | 307° |
| 2026-05-07 21:10 | 10.89637 | 106.35889 | 10261 ft | 309 kts | 307° |
| 2026-05-07 21:11 | 10.90933 | 106.34051 | 10382 ft | 329 kts | 307° |
| 2026-05-07 21:11 | 10.92303 | 106.32106 | 10521 ft | 348 kts | 307° |
| 2026-05-07 21:11 | 10.95241 | 106.27927 | 11345 ft | 373 kts | 307° |
| 2026-05-07 21:12 | 10.96763 | 106.25758 | 12033 ft | 378 kts | 306° |
| 2026-05-07 21:12 | 10.98300 | 106.23570 | 12821 ft | 382 kts | 306° |
| 2026-05-07 21:12 | 10.99847 | 106.21368 | 13582 ft | 386 kts | 306° |
| 2026-05-07 21:12 | 11.03260 | 106.15872 | 14997 ft | 399 kts | 295° |
| 2026-05-07 21:13 | 11.09903 | 105.97928 | 18950 ft | 422 kts | 287° |
| 2026-05-07 21:13 | 11.10521 | 105.95031 | 19382 ft | 427 kts | 275° |
| 2026-05-07 21:13 | 11.10599 | 105.92002 | 19822 ft | 430 kts | 265° |
| 2026-05-07 21:13 | 11.10201 | 105.88977 | 20311 ft | 432 kts | 260° |
| 2026-05-07 21:14 | 11.09720 | 105.85944 | 20792 ft | 435 kts | 260° |
| 2026-05-07 21:14 | 11.09251 | 105.82892 | 21274 ft | 438 kts | 260° |
| 2026-05-07 21:14 | 11.08799 | 105.79813 | 21741 ft | 441 kts | 261° |
| 2026-05-07 21:14 | 11.08357 | 105.76708 | 22200 ft | 444 kts | 261° |
| 2026-05-07 21:15 | 11.07918 | 105.73590 | 22658 ft | 446 kts | 261° |
| 2026-05-07 21:15 | 11.07667 | 105.70431 | 23045 ft | 450 kts | 270° |
| 2026-05-07 21:15 | 11.07922 | 105.67238 | 23457 ft | 454 kts | 278° |
| 2026-05-07 21:15 | 11.08603 | 105.64135 | 23805 ft | 457 kts | 287° |
| 2026-05-07 21:16 | 11.09653 | 105.61085 | 24182 ft | 458 kts | 290° |
| 2026-05-07 21:16 | 11.10751 | 105.58035 | 24561 ft | 460 kts | 290° |
| 2026-05-07 21:16 | 11.11858 | 105.54970 | 24934 ft | 461 kts | 290° |
| 2026-05-07 21:16 | 11.12959 | 105.51892 | 25294 ft | 463 kts | 290° |
| 2026-05-07 21:17 | 11.14054 | 105.48799 | 25653 ft | 465 kts | 289° |
| 2026-05-07 21:17 | 11.15145 | 105.45688 | 26022 ft | 467 kts | 289° |
| 2026-05-07 21:17 | 11.16235 | 105.42561 | 26380 ft | 469 kts | 289° |
| 2026-05-07 21:17 | 11.17325 | 105.39423 | 26730 ft | 471 kts | 289° |
| 2026-05-07 21:18 | 11.18419 | 105.36270 | 27082 ft | 473 kts | 289° |
| 2026-05-07 21:18 | 11.19518 | 105.33101 | 27442 ft | 475 kts | 289° |
| 2026-05-07 21:18 | 11.20622 | 105.29916 | 27792 ft | 477 kts | 289° |
| 2026-05-07 21:18 | 11.21718 | 105.26757 | 28113 ft | 480 kts | 289° |
| 2026-05-07 21:19 | 11.22831 | 105.23546 | 28459 ft | 482 kts | 289° |
| 2026-05-07 21:19 | 11.23950 | 105.20320 | 28795 ft | 484 kts | 289° |
| 2026-05-07 21:19 | 11.25074 | 105.17076 | 29134 ft | 486 kts | 289° |
| 2026-05-07 21:19 | 11.26202 | 105.13820 | 29458 ft | 488 kts | 289° |
| 2026-05-07 21:20 | 11.27333 | 105.10554 | 29787 ft | 490 kts | 289° |
| 2026-05-07 21:20 | 11.28467 | 105.07277 | 30058 ft | 492 kts | 289° |
| 2026-05-07 21:20 | 11.29603 | 105.03994 | 30316 ft | 494 kts | 289° |
| 2026-05-07 21:20 | 11.30743 | 105.00695 | 30572 ft | 495 kts | 289° |
| 2026-05-07 21:21 | 11.31893 | 104.97369 | 30829 ft | 497 kts | 289° |
| 2026-05-07 21:21 | 11.33043 | 104.94045 | 31089 ft | 498 kts | 290° |
| 2026-05-07 21:21 | 11.34321 | 104.90768 | 31343 ft | 499 kts | 294° |
| 2026-05-07 21:21 | 11.35891 | 104.87621 | 31543 ft | 501 kts | 301° |
| 2026-05-07 21:22 | 11.37742 | 104.84600 | 31727 ft | 503 kts | 302° |
| 2026-05-07 21:22 | 11.39633 | 104.81592 | 31782 ft | 505 kts | 303° |
| 2026-05-07 21:22 | 11.43415 | 104.75555 | 31850 ft | 504 kts | 302° |
| 2026-05-07 21:23 | 11.47128 | 104.69549 | 31853 ft | 503 kts | 302° |
| 2026-05-07 21:23 | 11.50835 | 104.63507 | 31868 ft | 502 kts | 302° |
| 2026-05-07 21:24 | 11.54541 | 104.57460 | 31852 ft | 502 kts | 302° |
| 2026-05-07 21:24 | 11.58244 | 104.51418 | 31849 ft | 502 kts | 302° |
| 2026-05-07 21:25 | 11.61943 | 104.45380 | 31873 ft | 502 kts | 302° |
| 2026-05-07 21:25 | 11.80303 | 104.15362 | 31886 ft | 502 kts | 302° |
| 2026-05-07 21:26 | 12.09086 | 103.67870 | 31867 ft | 502 kts | 302° |
| 2026-05-07 21:26 | 12.38517 | 103.19271 | 31896 ft | 504 kts | 301° |
| 2026-05-07 21:27 | 12.68064 | 102.70228 | 31852 ft | 507 kts | 301° |
| 2026-05-07 21:27 | 12.88701 | 102.25789 | 31794 ft | 482 kts | 291° |
| 2026-05-07 21:28 | 12.98297 | 102.00534 | 31921 ft | 490 kts | 291° |
| 2026-05-07 21:28 | 13.08217 | 101.75412 | 31837 ft | 490 kts | 296° |
| 2026-05-07 21:28 | 13.15582 | 101.61067 | 31751 ft | 479 kts | 297° |
| 2026-05-07 21:28 | 13.17493 | 101.57201 | 31838 ft | 478 kts | 296° |
| 2026-05-07 21:29 | 13.18977 | 101.54138 | 31689 ft | 478 kts | 296° |
| 2026-05-07 21:29 | 13.20430 | 101.51122 | 31088 ft | 477 kts | 296° |
| 2026-05-07 21:29 | 13.21902 | 101.48064 | 30460 ft | 476 kts | 296° |
| 2026-05-07 21:29 | 13.23364 | 101.45030 | 29886 ft | 474 kts | 296° |
| 2026-05-07 21:30 | 13.24822 | 101.42006 | 29249 ft | 470 kts | 297° |
| 2026-05-07 21:30 | 13.26268 | 101.39013 | 28632 ft | 467 kts | 297° |
| 2026-05-07 21:30 | 13.27699 | 101.36053 | 28062 ft | 462 kts | 297° |
| 2026-05-07 21:30 | 13.29125 | 101.33104 | 27513 ft | 458 kts | 297° |
| 2026-05-07 21:31 | 13.30536 | 101.30184 | 26974 ft | 455 kts | 296° |
| 2026-05-07 21:31 | 13.31915 | 101.27325 | 26487 ft | 450 kts | 296° |
| 2026-05-07 21:31 | 13.33297 | 101.24461 | 25979 ft | 446 kts | 296° |
| 2026-05-07 21:31 | 13.34674 | 101.21610 | 25452 ft | 444 kts | 296° |
| 2026-05-07 21:32 | 13.35884 | 101.18709 | 24894 ft | 440 kts | 287° |
| 2026-05-07 21:32 | 13.36587 | 101.15654 | 24336 ft | 439 kts | 281° |
| 2026-05-07 21:32 | 13.37143 | 101.12576 | 23831 ft | 437 kts | 280° |
| 2026-05-07 21:32 | 13.37701 | 101.09510 | 23357 ft | 435 kts | 281° |
| 2026-05-07 21:33 | 13.38288 | 101.06475 | 22848 ft | 431 kts | 281° |
| 2026-05-07 21:33 | 13.38898 | 101.03484 | 22395 ft | 427 kts | 282° |
| 2026-05-07 21:33 | 13.39520 | 101.00519 | 21941 ft | 422 kts | 282° |
| 2026-05-07 21:33 | 13.40141 | 100.97584 | 21478 ft | 419 kts | 282° |
| 2026-05-07 21:34 | 13.40753 | 100.94679 | 21026 ft | 416 kts | 282° |
| 2026-05-07 21:34 | 13.41451 | 100.91830 | 20489 ft | 408 kts | 291° |
| 2026-05-07 21:34 | 13.42897 | 100.89328 | 19825 ft | 410 kts | 311° |
| 2026-05-07 21:34 | 13.45012 | 100.87427 | 19392 ft | 406 kts | 327° |
| 2026-05-07 21:35 | 13.47403 | 100.85927 | 19025 ft | 400 kts | 329° |
| 2026-05-07 21:35 | 13.49705 | 100.84475 | 18475 ft | 385 kts | 328° |
| 2026-05-07 21:35 | 13.51954 | 100.83018 | 17629 ft | 383 kts | 328° |
| 2026-05-07 21:35 | 13.54334 | 100.81767 | 16762 ft | 390 kts | 345° |
| 2026-05-07 21:36 | 13.57040 | 100.81458 | 15940 ft | 396 kts | 6° |
| 2026-05-07 21:36 | 13.59719 | 100.82065 | 15139 ft | 395 kts | 18° |
| 2026-05-07 21:36 | 13.62373 | 100.82866 | 14347 ft | 400 kts | 17° |
| 2026-05-07 21:36 | 13.65076 | 100.83637 | 13555 ft | 405 kts | 16° |
| 2026-05-07 21:37 | 13.67816 | 100.84391 | 12686 ft | 409 kts | 15° |
| 2026-05-07 21:37 | 13.70573 | 100.85142 | 11862 ft | 412 kts | 15° |
| 2026-05-07 21:37 | 13.73243 | 100.85869 | 11303 ft | 382 kts | 15° |
| 2026-05-07 21:37 | 13.75719 | 100.86545 | 10776 ft | 352 kts | 16° |
| 2026-05-07 21:38 | 13.78019 | 100.87174 | 10276 ft | 332 kts | 16° |
| 2026-05-07 21:38 | 13.80252 | 100.87788 | 9813 ft | 339 kts | 16° |
| 2026-05-07 21:38 | 13.82531 | 100.88414 | 9329 ft | 346 kts | 16° |
| 2026-05-07 21:38 | 13.84852 | 100.89051 | 8766 ft | 348 kts | 16° |
| 2026-05-07 21:39 | 13.87196 | 100.89692 | 8165 ft | 350 kts | 16° |
| 2026-05-07 21:39 | 13.89559 | 100.90340 | 7579 ft | 351 kts | 16° |
| 2026-05-07 21:39 | 13.91924 | 100.90988 | 6999 ft | 353 kts | 15° |
| 2026-05-07 21:39 | 13.94218 | 100.91617 | 6308 ft | 330 kts | 15° |
| 2026-05-07 21:40 | 13.96385 | 100.92182 | 5566 ft | 314 kts | 10° |
| 2026-05-07 21:40 | 13.98592 | 100.92145 | 4855 ft | 324 kts | 346° |
| 2026-05-07 21:40 | 14.00644 | 100.91145 | 4147 ft | 327 kts | 322° |
| 2026-05-07 21:40 | 14.01672 | 100.90063 | 3712 ft | 313 kts | 303° |
| 2026-05-07 21:41 | 14.02469 | 100.87429 | 3438 ft | 280 kts | 266° |
| 2026-05-07 21:41 | 14.01960 | 100.85541 | 3262 ft | 272 kts | 238° |
| 2026-05-07 21:41 | 14.01176 | 100.84559 | 3133 ft | 266 kts | 219° |
| 2026-05-07 21:41 | 13.99557 | 100.83746 | 3010 ft | 256 kts | 190° |
| 2026-05-07 21:42 | 13.97298 | 100.83430 | 3000 ft | 244 kts | 189° |
| 2026-05-07 21:42 | 13.96178 | 100.83206 | 2995 ft | 243 kts | 193° |
| 2026-05-07 21:42 | 13.94531 | 100.82804 | 3000 ft | 244 kts | 194° |
| 2026-05-07 21:42 | 13.92902 | 100.82378 | 3004 ft | 245 kts | 194° |
| 2026-05-07 21:43 | 13.91247 | 100.81940 | 3005 ft | 246 kts | 194° |
| 2026-05-07 21:43 | 13.89590 | 100.81500 | 3005 ft | 246 kts | 193° |
| 2026-05-07 21:43 | 13.87935 | 100.81064 | 2993 ft | 244 kts | 194° |
| 2026-05-07 21:43 | 13.86310 | 100.80632 | 2993 ft | 237 kts | 194° |
| 2026-05-07 21:44 | 13.84739 | 100.80216 | 2968 ft | 226 kts | 194° |
| 2026-05-07 21:44 | 13.83235 | 100.79819 | 2732 ft | 224 kts | 194° |
| 2026-05-07 21:44 | 13.81750 | 100.79426 | 2496 ft | 219 kts | 195° |
| 2026-05-07 21:44 | 13.80272 | 100.79035 | 2193 ft | 220 kts | 195° |
| 2026-05-07 21:45 | 13.78820 | 100.78651 | 1932 ft | 208 kts | 194° |
| 2026-05-07 21:45 | 13.77467 | 100.78294 | 1667 ft | 192 kts | 194° |
| 2026-05-07 21:45 | 13.76230 | 100.77967 | 1414 ft | 174 kts | 194° |
| 2026-05-07 21:45 | 13.75124 | 100.77674 | 1182 ft | 156 kts | 194° |
| 2026-05-07 21:46 | 13.74099 | 100.77403 | 997 ft | 151 kts | 194° |
| 2026-05-07 21:46 | 13.73072 | 100.77131 | 810 ft | 153 kts | 193° |
| 2026-05-07 21:46 | 13.72059 | 100.76849 | 687 ft | 155 kts | 194° |
| 2026-05-07 21:46 | 13.71009 | 100.76580 | 432 ft | 155 kts | 191° |
| 2026-05-07 21:47 | 13.69973 | 100.76301 | 239 ft | 154 kts | 192° |
| 2026-05-07 21:47 | 13.68935 | 100.76042 | 49 ft | 153 kts | 193° |
| 2026-05-07 21:47 | 13.67964 | 100.75788 | 16 ft | 127 kts | 195° |
| 2026-05-07 21:47 | 13.67288 | 100.75611 | 18 ft | 68 kts | 194° |
| 2026-05-07 21:48 | 13.66991 | 100.75533 | 18 ft | 36 kts | 194° |
| 2026-05-07 21:48 | 13.66775 | 100.75449 | 18 ft | 22 kts | 221° |
| 2026-05-07 21:48 | 13.66693 | 100.75373 | 17 ft | 7 kts | 223° |
| 2026-05-07 21:48 | 13.66656 | 100.75335 | 17 ft | 10 kts | 229° |
| 2026-05-07 21:49 | 13.66685 | 100.75262 | 17 ft | 15 kts | 353° |
| 2026-05-07 21:49 | 13.66775 | 100.75283 | 17 ft | 11 kts | 14° |
| 2026-05-07 21:49 | 13.66852 | 100.75303 | 17 ft | 11 kts | 14° |
| 2026-05-07 21:49 | 13.66913 | 100.75319 | 17 ft | 11 kts | 14° |
| 2026-05-07 21:50 | 13.66990 | 100.75340 | 17 ft | 11 kts | 14° |
| 2026-05-07 21:50 | 13.67067 | 100.75361 | 17 ft | 11 kts | 14° |
| 2026-05-07 21:50 | 13.67145 | 100.75380 | 17 ft | 11 kts | 14° |
| 2026-05-07 21:50 | 13.67222 | 100.75400 | 17 ft | 11 kts | 14° |
| 2026-05-07 21:51 | 13.67337 | 100.75430 | 17 ft | 22 kts | 14° |
| 2026-05-07 21:51 | 13.67483 | 100.75469 | 17 ft | 22 kts | 14° |
| 2026-05-07 21:51 | 13.67605 | 100.75502 | 17 ft | 14 kts | 14° |
| 2026-05-07 21:51 | 13.67702 | 100.75527 | 17 ft | 14 kts | 14° |
| 2026-05-07 21:52 | 13.67799 | 100.75553 | 17 ft | 14 kts | 14° |
| 2026-05-07 21:52 | 13.67896 | 100.75579 | 17 ft | 14 kts | 15° |
| 2026-05-07 21:52 | 13.67993 | 100.75603 | 17 ft | 14 kts | 13° |
| 2026-05-07 21:52 | 13.68079 | 100.75626 | 17 ft | 12 kts | 14° |
| 2026-05-07 21:53 | 13.68158 | 100.75648 | 17 ft | 12 kts | 14° |
| 2026-05-07 21:53 | 13.68255 | 100.75672 | 17 ft | 16 kts | 14° |
| 2026-05-07 21:53 | 13.68361 | 100.75700 | 18 ft | 16 kts | 14° |
| 2026-05-07 21:53 | 13.68451 | 100.75674 | 19 ft | 16 kts | 285° |
| 2026-05-07 21:54 | 13.68478 | 100.75565 | 17 ft | 16 kts | 284° |
| 2026-05-07 21:54 | 13.68506 | 100.75455 | 17 ft | 18 kts | 284° |
| 2026-05-07 21:54 | 13.68537 | 100.75328 | 17 ft | 19 kts | 284° |
| 2026-05-07 21:54 | 13.68570 | 100.75199 | 17 ft | 19 kts | 285° |
| 2026-05-07 21:55 | 13.68603 | 100.75070 | 17 ft | 19 kts | 285° |
| 2026-05-07 21:55 | 13.68635 | 100.74941 | 17 ft | 19 kts | 284° |
| 2026-05-07 21:55 | 13.68666 | 100.74812 | 18 ft | 19 kts | 284° |
| 2026-05-07 21:55 | 13.68697 | 100.74683 | 18 ft | 19 kts | 284° |
| 2026-05-07 21:56 | 13.68731 | 100.74554 | 18 ft | 19 kts | 285° |
| 2026-05-07 21:56 | 13.68767 | 100.74427 | 18 ft | 17 kts | 298° |
| 2026-05-07 21:56 | 13.68861 | 100.74414 | 18 ft | 14 kts | 15° |
| 2026-05-07 21:56 | 13.68954 | 100.74439 | 18 ft | 13 kts | 13° |
| 2026-05-07 21:57 | 13.69045 | 100.74461 | 18 ft | 13 kts | 13° |
| 2026-05-07 21:57 | 13.69125 | 100.74457 | 18 ft | 9 kts | 319° |
| 2026-05-07 21:57 | 13.69157 | 100.74415 | 18 ft | 7 kts | 328° |
| 2026-05-07 21:57 | 13.69200 | 100.74418 | 18 ft | 4 kts | 14° |
| 2026-05-07 21:58 | 13.69222 | 100.74424 | 18 ft | 2 kts | 14° |
| 2026-05-07 21:58 | 13.69229 | 100.74426 | 18 ft | 1 kts | 13° |
| 2026-05-07 21:58 | 13.69232 | 100.74426 | 18 ft | 0 kts | 13° |